Time;durP1;ratioP1;P1;durP2;ratioP2;P2;SDS_P1;SDS_P2;PMS_P1;PMS_P2;Temp;Humidity;BMP_temperature;BMP_pressure;BME280_temperature;BME280_humidity;BME280_pressure;Samples;Min_cycle;Max_cycle;Signal;HPM_P1;HPM_P2
2021/10/21 02:21:16;;;;;;;17.90;16.10;;;;;;;14.41;54.57;98421.75;5026379;22;20352;-82
2021/10/21 02:23:42;;;;;;;17.63;15.73;;;;;;;14.41;55.07;98413.69;5028539;28;20221;-82
2021/10/21 02:26:16;;;;;;;18.83;16.87;;;;;;;14.42;54.68;98407.19;5023179;28;20228;-82
2021/10/21 02:28:44;;;;;;;19.13;17.23;;;;;;;14.38;55.50;98419.59;5034690;23;20229;-82
2021/10/21 02:31:14;;;;;;;19.57;17.43;;;;;;;14.42;54.92;98425.25;5012941;23;20309;-82
2021/10/21 02:33:43;;;;;;;18.63;16.70;;;;;;;14.37;54.68;98415.28;4990175;28;20267;-82
2021/10/21 02:36:09;;;;;;;18.33;16.43;;;;;;;14.35;54.71;98417.44;4965617;28;20233;-81
2021/10/21 02:38:37;;;;;;;18.43;16.63;;;;;;;14.31;54.04;98419.06;4970261;29;20252;-81
2021/10/21 02:41:04;;;;;;;19.43;17.03;;;;;;;14.36;54.77;98418.28;4968315;28;20275;-81
2021/10/21 02:43:34;;;;;;;27.40;24.90;;;;;;;14.29;54.81;98407.72;5001991;23;20262;-82
2021/10/21 02:46:02;;;;;;;25.63;23.33;;;;;;;14.30;54.82;98397.75;4991302;23;20235;-82
2021/10/21 02:48:29;;;;;;;22.10;19.80;;;;;;;14.25;54.26;98385.13;5022180;23;20253;-81
2021/10/21 02:51:20;;;;;;;20.57;18.47;;;;;;;14.34;54.14;98388.06;5027271;23;20233;-82
2021/10/21 02:53:50;;;;;;;20.17;18.27;;;;;;;14.19;54.82;98386.19;5002860;23;20242;-81
2021/10/21 02:56:19;;;;;;;20.67;17.33;;;;;;;14.26;54.71;98392.13;4974915;23;20233;-81
2021/10/21 02:58:49;;;;;;;19.67;17.70;;;;;;;14.23;54.87;98391.88;4944044;23;20232;-82
2021/10/21 03:01:17;;;;;;;21.33;18.13;;;;;;;14.22;54.91;98395.63;5022132;23;20290;-82
2021/10/21 03:03:50;;;;;;;19.70;17.77;;;;;;;14.10;55.26;98383.25;5001833;23;20623;-79
2021/10/21 03:06:24;;;;;;;19.33;17.43;;;;;;;14.18;54.42;98391.88;4957109;28;20233;-79
2021/10/21 03:08:56;;;;;;;18.80;16.90;;;;;;;14.25;54.93;98392.38;4991696;28;20300;-78
2021/10/21 03:11:27;;;;;;;18.77;16.77;;;;;;;14.24;55.22;98399.66;4988998;23;20218;-80
2021/10/21 03:14:04;;;;;;;17.73;15.93;;;;;;;14.25;54.75;98395.88;4987733;28;20192;-79
2021/10/21 03:16:34;;;;;;;17.20;15.50;;;;;;;14.24;54.64;98385.38;5020804;23;20231;-78
2021/10/21 03:19:25;;;;;;;19.13;17.07;;;;;;;14.18;54.15;98368.44;5002007;28;20175;-79
2021/10/21 03:21:56;;;;;;;18.50;16.37;;;;;;;14.18;54.84;98356.88;5043332;23;20260;-79
2021/10/21 03:24:33;;;;;;;18.40;16.57;;;;;;;14.22;54.67;98369.50;5067126;22;20246;-78
2021/10/21 03:27:07;;;;;;;20.03;17.93;;;;;;;14.21;54.51;98359.81;5015500;28;20198;-78
2021/10/21 03:29:55;;;;;;;19.80;17.70;;;;;;;14.17;54.61;98360.63;5031518;28;20322;-80
2021/10/21 03:32:27;;;;;;;19.83;17.70;;;;;;;14.21;55.23;98367.88;5008406;23;20224;-79
2021/10/21 03:34:57;;;;;;;19.43;17.40;;;;;;;14.18;54.64;98370.34;5021853;23;20214;-79
2021/10/21 03:37:32;;;;;;;19.63;17.63;;;;;;;14.25;54.67;98366.25;5008863;23;20259;-79
2021/10/21 03:40:08;;;;;;;19.27;17.27;;;;;;;14.25;54.78;98366.25;5007568;28;20266;-79
2021/10/21 03:42:57;;;;;;;19.33;17.43;;;;;;;14.30;54.72;98362.75;5038486;23;20245;-78
2021/10/21 03:45:37;;;;;;;19.17;17.20;;;;;;;14.25;53.92;98351.97;5032561;28;20226;-78
2021/10/21 03:48:22;;;;;;;18.80;17.00;;;;;;;14.07;54.70;98324.56;5016555;23;20236;-78
2021/10/21 03:51:03;;;;;;;22.83;17.33;;;;;;;14.27;54.44;98349.84;5079657;23;20270;-79
2021/10/21 03:53:41;;;;;;;18.90;17.00;;;;;;;14.22;54.14;98344.47;4975436;28;20197;-78
2021/10/21 03:56:10;;;;;;;18.53;16.63;;;;;;;14.17;54.95;98345.28;5022330;23;20422;-79
2021/10/21 03:58:45;;;;;;;17.97;16.17;;;;;;;14.20;54.51;98344.72;5001288;28;20223;-79
2021/10/21 04:01:21;;;;;;;19.07;17.17;;;;;;;14.05;54.80;98325.91;5027538;23;20310;-78
2021/10/21 04:03:49;;;;;;;18.83;16.93;;;;;;;14.13;54.76;98344.22;5042986;23;20235;-79
2021/10/21 04:06:25;;;;;;;18.37;16.27;;;;;;;14.15;54.59;98346.63;5187192;23;20300;-78
2021/10/21 04:09:04;;;;;;;17.93;16.13;;;;;;;14.07;55.05;98339.91;4992087;28;20269;-79
2021/10/21 04:11:51;;;;;;;19.50;17.40;;;;;;;13.95;54.68;98332.13;5094138;23;20238;-79
2021/10/21 04:14:19;;;;;;;18.90;16.90;;;;;;;14.12;54.91;98337.22;5026886;28;20223;-79
2021/10/21 04:17:11;;;;;;;19.30;17.30;;;;;;;14.24;54.78;98329.63;5015817;28;20258;-79
2021/10/21 04:19:45;;;;;;;18.93;16.93;;;;;;;14.26;54.68;98322.09;5046919;23;20218;31
2021/10/21 04:22:55;;;;;;;23.43;19.27;;;;;;;14.30;54.85;98319.63;4966449;29;20223;-79
2021/10/21 04:25:53;;;;;;;19.97;17.90;;;;;;;14.37;54.68;98317.50;5015228;23;20222;-78
2021/10/21 04:28:21;;;;;;;24.00;19.73;;;;;;;14.33;54.93;98301.03;4968829;28;20231;-79
2021/10/21 04:31:00;;;;;;;22.40;19.77;;;;;;;14.37;54.67;98296.72;4974350;23;20252;-79
2021/10/21 04:33:34;;;;;;;22.47;19.57;;;;;;;14.26;55.06;98276.28;4977129;28;20775;-79
2021/10/21 04:36:47;;;;;;;21.60;19.07;;;;;;;14.34;55.26;98270.31;4989049;23;20232;-79
2021/10/21 04:39:37;;;;;;;20.03;17.93;;;;;;;14.37;54.96;98252.84;5022519;23;20233;-79
2021/10/21 04:42:45;;;;;;;21.03;18.87;;;;;;;14.38;55.22;98241.75;4953617;28;20237;-79
2021/10/21 04:45:13;;;;;;;20.27;18.23;;;;;;;14.41;55.19;98246.63;5008949;23;20260;-79
2021/10/21 04:48:01;;;;;;;21.83;19.63;;;;;;;14.38;54.95;98254.44;4987591;23;20220;-79
2021/10/21 04:54:04;;;;;;;21.70;19.50;;;;;;;14.40;54.41;98225.34;5032098;23;20629;-79
2021/10/21 04:56:52;;;;;;;23.23;20.70;;;;;;;14.35;55.22;98228.03;4996623;23;20311;-79
2021/10/21 04:59:18;;;;;;;21.90;19.57;;;;;;;14.31;55.30;98217.00;4993458;28;20198;-78
2021/10/21 05:02:11;;;;;;;23.63;20.83;;;;;;;14.36;55.24;98216.19;5006716;23;20227;-79
2021/10/21 05:05:06;;;;;;;22.03;19.63;;;;;;;14.27;53.92;98207.88;5001013;23;20631;-79
2021/10/21 05:08:09;;;;;;;21.43;19.23;;;;;;;14.33;55.28;98203.22;5006336;23;20212;-79
2021/10/21 05:10:56;;;;;;;20.90;18.20;;;;;;;14.35;55.23;98198.38;4973148;23;20242;-79
2021/10/21 05:14:30;;;;;;;21.63;17.23;;;;;;;14.31;54.92;98189.25;5036266;23;20226;31
2021/10/21 05:17:00;;;;;;;20.23;17.77;;;;;;;14.31;55.25;98181.16;4986698;28;20240;-79
2021/10/21 05:19:31;;;;;;;19.73;17.57;;;;;;;14.17;55.27;98172.91;4983614;23;20232;-79
2021/10/21 05:22:25;;;;;;;21.77;18.53;;;;;;;14.21;55.87;98178.53;4981141;23;20228;-79
2021/10/21 05:25:04;;;;;;;21.47;17.77;;;;;;;14.28;55.08;98185.22;5022196;23;20255;-79
2021/10/21 05:28:07;;;;;;;31.23;17.33;;;;;;;14.27;55.33;98172.84;5022289;28;20188;-78
2021/10/21 05:31:10;;;;;;;18.73;16.83;;;;;;;14.31;55.02;98171.19;5021643;23;20226;-79
2021/10/21 05:33:53;;;;;;;24.17;17.37;;;;;;;14.33;56.13;98168.22;5016452;28;20278;-80
2021/10/21 05:36:26;;;;;;;21.03;17.67;;;;;;;14.32;55.85;98151.25;5027499;23;20726;-79
2021/10/21 05:38:58;;;;;;;28.63;17.50;;;;;;;14.37;55.69;98145.84;5043543;23;20330;-79
2021/10/21 05:41:49;;;;;;;19.77;17.23;;;;;;;14.37;55.37;98153.94;5011176;28;20232;-80
2021/10/21 05:44:53;;;;;;;30.40;16.80;;;;;;;14.42;56.21;98143.13;4984407;28;20296;-79
2021/10/21 05:47:46;;;;;;;45.60;18.67;;;;;;;14.40;55.69;98142.63;4997656;28;20268;-79
2021/10/21 05:50:22;;;;;;;24.40;17.07;;;;;;;14.42;55.93;98140.44;5015753;23;20271;-79
2021/10/21 05:53:12;;;;;;;21.33;17.17;;;;;;;14.37;55.56;98142.38;4956695;23;20236;-79
2021/10/21 05:56:01;;;;;;;18.77;16.70;;;;;;;14.38;55.56;98136.69;5078268;23;20238;-78
2021/10/21 05:58:28;;;;;;;17.80;16.00;;;;;;;14.37;55.45;98135.06;5034588;23;20274;-79
2021/10/21 06:01:10;;;;;;;17.07;15.40;;;;;;;14.40;55.58;98128.34;5012837;23;20236;-79
2021/10/21 06:04:09;;;;;;;19.33;15.97;;;;;;;14.36;54.88;98116.50;5051587;23;20267;-79
2021/10/21 06:06:49;;;;;;;16.80;15.10;;;;;;;14.47;55.79;98126.13;5018836;23;20218;-79
2021/10/21 06:09:20;;;;;;;17.33;15.53;;;;;;;14.45;54.89;98131.00;5016421;23;20230;-79
2021/10/21 06:12:07;;;;;;;18.70;16.90;;;;;;;14.42;54.90;98116.19;5038739;23;20225;-79
2021/10/21 06:14:53;;;;;;;17.03;15.30;;;;;;;14.45;54.88;98141.78;5015541;23;20236;-79
2021/10/21 06:17:24;;;;;;;16.23;14.83;;;;;;;14.44;55.37;98140.16;5011638;28;20205;-79
2021/10/21 06:20:14;;;;;;;16.70;15.00;;;;;;;14.43;53.69;98125.88;5084056;23;20199;-79
2021/10/21 06:23:35;;;;;;;15.93;14.33;;;;;;;14.63;55.21;98124.91;4991710;28;20334;-79
2021/10/21 06:26:28;;;;;;;16.73;15.03;;;;;;;14.65;54.93;98136.22;4998447;28;20483;-78
2021/10/21 06:29:22;;;;;;;16.10;14.50;;;;;;;14.70;55.13;98133.47;5003594;23;20243;-79
2021/10/21 06:32:25;;;;;;;17.50;15.80;;;;;;;14.76;55.08;98121.56;5009262;28;20251;-79
2021/10/21 06:36:11;;;;;;;17.80;16.00;;;;;;;14.94;54.48;98125.44;4978383;23;20284;-79
2021/10/21 06:39:34;;;;;;;21.47;19.27;;;;;;;15.01;53.59;98136.72;5062543;23;20683;-79
2021/10/21 06:42:27;;;;;;;19.13;16.83;;;;;;;15.08;54.55;98139.06;4972946;23;3521940;-79
2021/10/21 06:45:44;;;;;;;20.63;18.43;;;;;;;15.16;53.85;98133.09;4964639;23;20258;-79
2021/10/21 06:48:41;;;;;;;26.57;20.90;;;;;;;15.40;54.21;98131.19;5031801;23;20252;-79
2021/10/21 06:51:29;;;;;;;24.00;19.80;;;;;;;15.62;54.14;98141.50;5036028;28;20228;-79
2021/10/21 06:54:06;;;;;;;21.47;19.17;;;;;;;15.74;54.26;98136.50;5048383;28;20222;-79
2021/10/21 06:57:02;;;;;;;22.33;19.90;;;;;;;15.81;54.16;98132.38;5043752;23;20218;-79
2021/10/21 07:00:26;;;;;;;24.47;19.27;;;;;;;15.99;54.52;98128.09;5055480;23;20236;-80
2021/10/21 07:03:50;;;;;;;28.17;22.07;;;;;;;16.09;54.32;98122.53;5041780;23;20230;-79
2021/10/21 07:07:10;;;;;;;34.20;27.07;;;;;;;16.25;54.74;98134.72;5047771;23;20203;-79
2021/10/21 07:10:32;;;;;;;25.10;22.03;;;;;;;16.43;54.25;98129.59;5007412;23;20242;-78
2021/10/21 07:14:08;;;;;;;28.80;24.40;;;;;;;16.56;53.90;98105.31;5033128;23;20238;-78
2021/10/21 07:17:37;;;;;;;32.03;23.87;;;;;;;16.93;53.80;98138.84;1685737;23;20212;-79
2021/10/21 07:21:07;;;;;;;30.93;24.90;;;;;;;16.91;53.85;98141.03;5003920;23;20235;-79
2021/10/21 07:23:54;;;;;;;26.50;22.27;;;;;;;16.84;54.65;98144.16;5014936;28;20226;-79
2021/10/21 07:27:03;;;;;;;25.60;22.90;;;;;;;16.99;54.20;98159.28;5064641;23;20246;-79
2021/10/21 07:30:21;;;;;;;27.60;24.77;;;;;;;17.02;54.22;98156.81;5134550;23;20269;-79
2021/10/21 07:33:18;;;;;;;27.87;24.30;;;;;;;17.24;53.35;98171.59;5040373;23;20237;-79
2021/10/21 07:36:23;;;;;;;29.67;26.27;;;;;;;17.34;53.77;98176.81;5034956;28;20215;-80
2021/10/21 07:39:32;;;;;;;34.07;28.57;;;;;;;17.13;54.86;98165.53;5040242;23;20226;-79
2021/10/21 07:42:20;;;;;;;33.30;27.63;;;;;;;17.39;54.67;98179.44;5125498;23;20234;-79
2021/10/21 07:44:49;;;;;;;33.43;27.37;;;;;;;17.66;53.66;98206.56;5028614;28;20227;-79
2021/10/21 07:47:42;;;;;;;34.80;28.33;;;;;;;17.51;54.32;98272.63;5028720;28;20234;-79
2021/10/21 07:50:19;;;;;;;28.40;25.30;;;;;;;16.94;54.51;98321.69;5008140;28;20242;-79
2021/10/21 07:52:55;;;;;;;30.87;27.17;;;;;;;17.40;54.32;98316.41;5008023;28;20238;-79
2021/10/21 07:56:06;;;;;;;33.30;28.43;;;;;;;17.21;53.54;98318.34;5020627;28;20326;-79
2021/10/21 07:59:06;;;;;;;33.87;28.07;;;;;;;17.53;52.78;98304.81;5017594;23;20235;-79
2021/10/21 08:01:39;;;;;;;32.27;26.93;;;;;;;18.18;51.98;98305.56;5027327;28;20294;-80
2021/10/21 08:04:16;;;;;;;34.50;28.33;;;;;;;17.53;53.30;98294.78;5027306;28;20241;-79
2021/10/21 08:06:49;;;;;;;32.87;28.43;;;;;;;17.83;52.71;98306.22;5011869;28;20298;-79
2021/10/21 08:09:37;;;;;;;34.23;28.10;;;;;;;18.08;52.86;98313.88;5043457;23;20270;-78
2021/10/21 08:12:35;;;;;;;30.70;27.37;;;;;;;18.61;51.51;98305.28;5008396;28;20234;-79
2021/10/21 08:15:07;;;;;;;29.67;26.47;;;;;;;18.84;51.10;98307.75;4987486;28;20703;-79
2021/10/21 08:17:38;;;;;;;28.53;24.43;;;;;;;19.00;50.66;98310.91;5018384;23;20218;-79
2021/10/21 08:20:12;;;;;;;29.40;24.63;;;;;;;18.88;50.82;98303.31;5010384;28;20230;-79
2021/10/21 08:22:50;;;;;;;26.77;23.87;;;;;;;18.63;51.09;98294.91;5034489;23;20294;-79
2021/10/21 08:25:35;;;;;;;27.97;24.90;;;;;;;18.95;51.40;98300.16;5031946;28;20231;-80
2021/10/21 08:28:14;;;;;;;29.13;25.33;;;;;;;19.17;51.24;98308.34;5033982;28;20210;-79
2021/10/21 08:30:47;;;;;;;26.97;23.53;;;;;;;19.26;49.73;98289.41;5031990;28;20242;-79
2021/10/21 08:33:16;;;;;;;26.63;23.40;;;;;;;18.62;51.42;98315.81;5030016;28;20234;-79
2021/10/21 08:35:47;;;;;;;26.23;23.50;;;;;;;18.82;51.42;98301.00;5039873;23;20242;-79
2021/10/21 08:39:11;;;;;;;26.30;23.30;;;;;;;19.02;51.09;98305.97;5009333;23;20264;-80
2021/10/21 08:49:24;;;;;;;25.27;22.27;;;;;;;20.61;47.65;98318.78;5059992;23;20227;31
2021/10/21 08:55:19;;;;;;;23.00;20.60;;;;;;;19.90;48.69;98325.31;5030826;23;20226;-79
2021/10/21 08:57:49;;;;;;;22.87;20.53;;;;;;;20.55;48.49;98325.47;4998496;23;20539;-78
2021/10/21 09:00:44;;;;;;;21.97;19.63;;;;;;;20.91;47.27;98301.53;5009552;23;20295;-78
2021/10/21 09:03:55;;;;;;;21.67;18.63;;;;;;;21.25;47.23;98335.38;4996336;28;20200;-78
2021/10/21 09:06:50;;;;;;;19.13;17.23;;;;;;;21.56;46.26;98327.03;5009799;28;20235;-85
2021/10/21 09:09:26;;;;;;;19.67;17.57;;;;;;;21.31;46.79;98332.19;5000872;28;20251;-79
2021/10/21 09:12:14;;;;;;;20.03;17.97;;;;;;;21.28;46.52;98345.63;5003761;23;20225;-78
2021/10/21 09:14:53;;;;;;;17.83;16.07;;;;;;;22.00;45.14;98334.81;5013951;28;20250;-79
2021/10/21 09:17:26;;;;;;;18.90;17.00;;;;;;;22.42;44.69;98349.44;5013986;28;20256;-84
2021/10/21 09:19:54;;;;;;;18.50;15.63;;;;;;;22.58;44.46;98346.97;4997886;28;20233;-89
2021/10/21 09:22:27;;;;;;;18.47;16.67;;;;;;;22.70;43.34;98358.81;4993527;28;20277;-88
2021/10/21 09:24:57;;;;;;;17.10;15.40;;;;;;;22.51;43.73;98368.50;4974409;28;20237;-87
2021/10/21 09:27:25;;;;;;;16.27;14.57;;;;;;;22.67;43.62;98366.84;4980958;28;20238;-88
2021/10/21 09:29:54;;;;;;;16.60;14.90;;;;;;;22.42;42.94;98363.09;4973612;28;20237;-87
2021/10/21 09:32:22;;;;;;;16.40;14.70;;;;;;;22.51;43.14;98376.69;4996803;28;20245;-88
2021/10/21 09:34:53;;;;;;;15.93;14.27;;;;;;;23.18;41.90;98380.22;4972698;28;20285;-87
2021/10/21 09:37:22;;;;;;;15.20;13.70;;;;;;;23.27;41.52;98383.69;4980956;28;20513;-89
2021/10/21 09:39:52;;;;;;;15.87;14.00;;;;;;;23.51;41.32;98376.78;4973052;28;20657;-83
2021/10/21 09:42:36;;;;;;;14.87;13.43;;;;;;;23.86;40.46;98404.59;4980183;28;20282;-80
2021/10/21 09:45:13;;;;;;;15.17;13.47;;;;;;;24.14;40.78;98402.88;4996572;28;20235;-83
2021/10/21 09:47:45;;;;;;;16.30;14.60;;;;;;;23.77;40.71;98414.81;4995290;28;20227;-89
2021/10/21 09:50:28;;;;;;;14.13;12.83;;;;;;;24.88;38.84;98426.53;4975674;28;20242;-86
2021/10/21 09:53:20;;;;;;;14.27;12.90;;;;;;;24.77;39.34;98428.94;4977152;28;20228;-86
2021/10/21 09:55:50;;;;;;;12.20;11.00;;;;;;;24.92;38.41;98428.25;4980569;28;20536;-85
2021/10/21 09:58:20;;;;;;;12.47;11.17;;;;;;;24.09;40.45;98431.25;4979874;28;20243;-84
2021/10/21 10:00:49;;;;;;;13.43;12.23;;;;;;;24.38;39.37;98448.69;4972379;28;20665;-80
2021/10/21 10:03:17;;;;;;;13.60;11.90;;;;;;;24.76;39.42;98459.38;4980079;28;20235;-81
2021/10/21 10:05:48;;;;;;;13.27;11.80;;;;;;;25.00;39.17;98464.91;4980337;28;20689;-84
2021/10/21 10:08:17;;;;;;;15.47;12.87;;;;;;;25.17;38.87;98453.72;4963575;28;20238;-86
2021/10/21 10:10:46;;;;;;;6.00;4.60;;;;;;;25.85;35.72;98481.25;4979786;28;20235;-80
2021/10/21 10:13:13;;;;;;;6.50;2.73;;;;;;;25.46;34.38;98477.34;5003599;28;20716;-87
2021/10/21 10:15:43;;;;;;;12.63;2.53;;;;;;;25.42;34.56;98460.78;4998387;28;20234;-84
2021/10/21 10:18:16;;;;;;;4.80;1.93;;;;;;;25.31;34.49;98478.84;5015030;28;20313;-88
2021/10/21 10:21:06;;;;;;;7.60;2.10;;;;;;;25.53;34.66;98509.66;5015591;28;20245;-86
2021/10/21 10:23:34;;;;;;;4.97;1.60;;;;;;;26.20;33.34;98487.78;4999087;28;20231;-82
2021/10/21 10:26:01;;;;;;;2.90;2.00;;;;;;;26.66;33.16;98502.81;4998624;28;20525;-84
2021/10/21 10:28:53;;;;;;;3.10;2.27;;;;;;;26.99;32.50;98515.44;4998613;28;20630;-87
2021/10/21 10:31:44;;;;;;;3.47;2.20;;;;;;;27.03;32.19;98508.88;4999011;28;20262;-87
2021/10/21 10:34:33;;;;;;;3.30;1.70;;;;;;;26.92;32.29;98515.28;5015002;28;20251;-85
2021/10/21 10:37:12;;;;;;;3.10;1.93;;;;;;;26.28;32.93;98522.56;5017135;28;20219;-87
2021/10/21 10:39:54;;;;;;;2.77;1.70;;;;;;;26.08;33.38;98512.53;5005979;28;20635;-87
2021/10/21 10:42:30;;;;;;;4.10;2.00;;;;;;;26.74;32.58;98521.06;5005672;28;20242;-87
2021/10/21 10:45:08;;;;;;;2.60;2.10;;;;;;;26.09;33.10;98518.81;5025320;28;20230;-88
2021/10/21 10:47:38;;;;;;;3.40;1.97;;;;;;;26.65;32.01;98530.59;4990134;28;20223;-86
2021/10/21 10:50:07;;;;;;;1.97;1.87;;;;;;;26.67;31.84;98517.34;5020673;28;20225;-86
2021/10/21 10:52:52;;;;;;;4.30;2.10;;;;;;;26.76;31.41;98526.22;5007525;28;20238;-84
2021/10/21 10:55:21;;;;;;;2.13;1.93;;;;;;;26.62;31.08;98514.84;5016078;28;20268;-85
2021/10/21 10:57:48;;;;;;;2.87;1.73;;;;;;;26.07;31.43;98532.09;4991364;28;20358;-85
2021/10/21 11:00:40;;;;;;;2.00;1.60;;;;;;;26.47;30.72;98546.63;5014615;28;20238;-82
2021/10/21 11:03:08;;;;;;;2.03;1.70;;;;;;;26.27;31.04;98537.41;5015136;28;20323;-85
2021/10/21 11:05:45;;;;;;;1.83;1.63;;;;;;;26.67;30.54;98548.34;4998614;28;20231;-82
2021/10/21 11:08:16;;;;;;;2.00;1.60;;;;;;;26.90;30.39;98545.03;5014514;28;20227;-86
2021/10/21 11:10:46;;;;;;;2.53;1.87;;;;;;;26.48;31.02;98544.66;5014752;28;20245;-83
2021/10/21 11:13:34;;;;;;;5.07;2.00;;;;;;;26.63;30.90;98558.44;4980926;28;20645;-86
2021/10/21 11:16:02;;;;;;;2.10;1.80;;;;;;;25.69;31.89;98521.56;5013806;28;20533;-82
2021/10/21 11:18:38;;;;;;;6.30;2.90;;;;;;;25.80;32.03;98539.91;5014456;28;20583;-87
2021/10/21 11:21:06;;;;;;;5.13;2.07;;;;;;;25.97;31.93;98549.03;5014371;28;20317;-84
2021/10/21 11:23:33;;;;;;;2.33;2.13;;;;;;;26.16;31.81;98541.78;5014320;28;20231;-85
2021/10/21 11:26:03;;;;;;;4.37;2.10;;;;;;;26.67;31.07;98526.38;5014149;28;20506;-83
2021/10/21 11:28:31;;;;;;;3.33;2.30;;;;;;;26.15;32.40;98528.41;4982605;28;20230;-84
2021/10/21 11:31:00;;;;;;;4.27;2.23;;;;;;;26.18;32.24;98524.94;5014214;28;20232;-82
2021/10/21 11:33:27;;;;;;;2.30;2.10;;;;;;;26.73;31.30;98518.69;5010779;28;20310;-84
2021/10/21 11:36:02;;;;;;;3.27;2.20;;;;;;;26.84;31.04;98527.97;4994626;28;20578;-84
2021/10/21 11:38:31;;;;;;;2.83;2.10;;;;;;;27.05;30.59;98528.56;4978110;28;20575;-85
2021/10/21 11:41:01;;;;;;;2.47;2.17;;;;;;;26.94;30.70;98512.97;4978959;28;20278;-81
2021/10/21 11:43:40;;;;;;;4.43;2.10;;;;;;;26.78;30.85;98518.44;4978618;28;20223;-81
2021/10/21 11:46:10;;;;;;;2.40;1.90;;;;;;;26.95;30.48;98517.31;4995362;28;20240;-82
2021/10/21 11:48:39;;;;;;;2.50;2.00;;;;;;;27.51;30.04;98506.91;4997778;28;20621;-81
2021/10/21 11:51:12;;;;;;;6.50;2.20;;;;;;;26.55;30.01;98498.97;5033722;28;20235;-81
2021/10/21 11:53:40;;;;;;;2.33;2.03;;;;;;;26.51;29.84;98511.00;5033648;28;20289;-84
2021/10/21 11:56:07;;;;;;;4.90;1.87;;;;;;;26.70;29.67;98516.63;5016741;28;20225;-80
2021/10/21 11:58:38;;;;;;;2.47;1.50;;;;;;;26.75;29.11;98516.38;5037408;28;20258;-82
2021/10/21 12:01:09;;;;;;;2.63;1.43;;;;;;;27.04;28.40;98512.44;5005435;28;20250;-82
2021/10/21 12:03:42;;;;;;;2.57;1.40;;;;;;;26.76;27.87;98530.91;5005289;28;20228;-82
2021/10/21 12:06:14;;;;;;;3.47;1.40;;;;;;;26.83;27.67;98537.38;5021203;28;20226;-82
2021/10/21 12:08:50;;;;;;;3.53;1.37;;;;;;;26.60;27.47;98553.66;5005340;28;20253;-86
2021/10/21 12:11:21;;;;;;;5.33;1.60;;;;;;;26.32;27.92;98536.38;5021322;28;20235;-81
2021/10/21 12:13:48;;;;;;;2.10;1.20;;;;;;;25.99;28.33;98553.03;5037453;28;20237;-84
2021/10/21 12:16:17;;;;;;;4.83;1.37;;;;;;;26.27;28.11;98528.38;5020730;28;20239;-80
2021/10/21 12:19:09;;;;;;;2.50;1.50;;;;;;;26.65;27.72;98563.56;5024139;28;20527;-81
2021/10/21 12:21:38;;;;;;;3.07;1.30;;;;;;;26.69;27.23;98554.28;5038460;28;20242;-83
2021/10/21 12:24:22;;;;;;;2.93;1.27;;;;;;;26.46;27.26;98544.22;5021280;28;20243;-86
2021/10/21 12:26:55;;;;;;;8.40;1.57;;;;;;;26.13;27.72;98527.97;5020941;28;20232;-81
2021/10/21 12:29:24;;;;;;;5.83;1.00;;;;;;;25.71;26.92;98517.31;5021038;28;20237;-87
2021/10/21 12:31:50;;;;;;;5.67;1.30;;;;;;;25.63;26.28;98492.75;5021276;28;20240;-81
2021/10/21 12:34:28;;;;;;;9.67;1.50;;;;;;;25.28;26.64;98528.06;5037090;28;20309;-81
2021/10/21 12:36:55;;;;;;;3.53;1.03;;;;;;;25.38;26.60;98527.63;5018698;28;20224;-80
2021/10/21 12:39:26;;;;;;;3.20;0.90;;;;;;;25.46;26.44;98526.69;4995632;28;20239;-83
2021/10/21 12:41:56;;;;;;;1.03;0.87;;;;;;;26.03;25.79;98523.78;4983825;28;20228;-85
2021/10/21 12:44:38;;;;;;;7.50;1.20;;;;;;;25.68;26.16;98552.88;4985159;28;20706;-85
2021/10/21 12:47:16;;;;;;;2.87;0.97;;;;;;;25.68;26.61;98539.16;5017177;28;20564;-85
2021/10/21 12:50:06;;;;;;;3.60;0.90;;;;;;;25.85;26.58;98531.44;5020136;28;20231;-84
2021/10/21 12:52:43;;;;;;;1.93;0.90;;;;;;;25.76;26.42;98535.47;5003305;28;20280;-84
2021/10/21 12:55:18;;;;;;;1.67;1.10;;;;;;;25.80;26.49;98539.91;4999282;28;20270;-81
2021/10/21 12:57:47;;;;;;;1.27;0.70;;;;;;;25.88;26.67;98548.38;5015148;28;20599;-81
2021/10/21 13:00:46;;;;;;;0.80;0.80;;;;;;;25.81;26.89;98537.97;4998522;28;20234;-82
2021/10/21 13:03:19;;;;;;;1.60;0.80;;;;;;;25.91;26.70;98533.97;4996575;28;20235;-83
2021/10/21 13:05:48;;;;;;;4.00;0.90;;;;;;;25.72;27.45;98549.09;4965045;28;20257;-82
2021/10/21 13:08:15;;;;;;;2.87;0.90;;;;;;;25.68;27.41;98559.16;4979791;28;20240;-83
2021/10/21 13:10:56;;;;;;;4.70;1.10;;;;;;;25.29;27.14;98563.34;4989437;28;20664;-82
2021/10/21 13:13:30;;;;;;;1.47;0.87;;;;;;;25.26;27.29;98561.31;5001059;28;20232;-82
2021/10/21 13:16:03;;;;;;;5.03;0.90;;;;;;;24.91;27.50;98571.06;5000294;28;20685;-85
2021/10/21 13:18:30;;;;;;;2.83;1.10;;;;;;;25.12;27.60;98571.78;5000344;28;20579;-82
2021/10/21 13:20:57;;;;;;;1.97;0.90;;;;;;;25.05;27.15;98566.09;5000093;28;20236;-85
2021/10/21 13:23:24;;;;;;;2.07;0.87;;;;;;;24.87;26.70;98583.84;5016182;28;20230;-86
2021/10/21 13:25:52;;;;;;;3.27;1.10;;;;;;;24.93;26.67;98579.75;5000074;28;20224;-81
2021/10/21 13:28:20;;;;;;;3.47;1.13;;;;;;;24.80;26.75;98576.16;4999706;28;20242;-84
2021/10/21 13:30:48;;;;;;;2.30;0.80;;;;;;;24.91;26.23;98587.50;4984015;28;20615;-81
2021/10/21 13:33:15;;;;;;;1.80;0.70;;;;;;;24.62;25.86;98598.56;5015962;28;20242;-81
2021/10/21 13:35:43;;;;;;;2.40;0.70;;;;;;;24.27;26.27;98587.91;4999866;28;20646;-85
2021/10/21 13:38:11;;;;;;;1.63;0.60;;;;;;;24.47;25.78;98595.31;4988289;28;20342;-82
2021/10/21 13:40:43;;;;;;;1.20;0.60;;;;;;;24.17;26.12;98595.72;4996154;28;20227;-85
2021/10/21 13:43:10;;;;;;;2.53;0.70;;;;;;;24.25;26.25;98606.59;4997860;28;20282;-81
2021/10/21 13:45:38;;;;;;;1.63;0.53;;;;;;;23.99;26.22;98593.06;5011822;28;20227;-82
2021/10/21 13:48:09;;;;;;;4.57;0.80;;;;;;;23.89;26.37;98620.81;5004697;28;20645;-80
2021/10/21 13:50:37;;;;;;;3.50;0.70;;;;;;;23.82;26.59;98636.94;5035591;28;20530;-87
2021/10/21 13:53:04;;;;;;;2.43;0.60;;;;;;;23.64;26.30;98625.31;5019215;28;20229;-82
2021/10/21 13:55:35;;;;;;;2.70;0.50;;;;;;;23.32;26.53;98636.03;5002715;28;20241;-82
2021/10/21 13:58:05;;;;;;;3.30;0.63;;;;;;;23.62;26.66;98646.69;5002712;28;20614;-83
2021/10/21 14:00:34;;;;;;;4.60;0.90;;;;;;;23.58;26.51;98636.75;5019099;28;20222;-86
2021/10/21 14:03:02;;;;;;;3.83;0.70;;;;;;;23.67;26.61;98640.25;5003112;28;20234;-83
2021/10/21 14:05:32;;;;;;;3.43;0.83;;;;;;;23.39;26.47;98650.78;5019027;28;20655;-85
2021/10/21 14:08:03;;;;;;;2.30;2.10;;;;;;;23.72;26.54;98670.13;5035498;28;20237;-84
2021/10/21 14:10:30;;;;;;;1.80;0.90;;;;;;;23.27;26.82;98673.34;5018694;28;20229;-86
2021/10/21 14:12:58;;;;;;;6.37;0.90;;;;;;;22.88;27.43;98668.09;5002524;28;20253;-84
2021/10/21 14:15:26;;;;;;;2.50;0.70;;;;;;;23.10;27.36;98670.63;5028848;28;20246;-86
2021/10/21 14:17:53;;;;;;;5.57;1.00;;;;;;;23.30;27.07;98674.59;5015451;28;20238;-88
2021/10/21 14:20:21;;;;;;;4.47;0.73;;;;;;;23.25;26.91;98681.03;5031251;28;20238;-83
2021/10/21 14:22:47;;;;;;;1.77;0.60;;;;;;;23.21;27.01;98673.81;4998867;28;20223;-80
2021/10/21 14:25:14;;;;;;;2.67;0.60;;;;;;;23.17;26.92;98686.53;5015289;28;20301;-87
2021/10/21 14:27:41;;;;;;;3.10;0.80;;;;;;;23.32;26.47;98691.50;5015267;28;20668;-80
2021/10/21 14:30:09;;;;;;;1.53;0.60;;;;;;;23.23;26.46;98688.78;4998473;28;20227;-83
2021/10/21 14:32:37;;;;;;;4.00;0.63;;;;;;;23.27;26.95;98694.41;4998857;28;20564;-83
2021/10/21 14:35:05;;;;;;;2.97;0.57;;;;;;;23.69;26.08;98682.56;5014929;28;20222;-85
2021/10/21 14:37:37;;;;;;;1.33;0.73;;;;;;;23.60;26.41;98681.78;4998968;28;20241;-80
2021/10/21 14:40:11;;;;;;;2.83;0.53;;;;;;;23.58;26.11;98678.56;5015638;28;20234;-85
2021/10/21 14:42:39;;;;;;;2.23;0.80;;;;;;;23.10;26.29;98672.56;5014753;28;20227;-79
2021/10/21 14:45:07;;;;;;;2.20;0.80;;;;;;;22.80;26.19;98661.53;4995008;28;20338;-87
2021/10/21 14:47:34;;;;;;;4.13;0.57;;;;;;;23.08;25.86;98667.44;5014081;28;20236;-80
2021/10/21 14:50:03;;;;;;;2.10;0.67;;;;;;;23.64;25.29;98660.84;5033817;28;20210;-84
2021/10/21 14:52:30;;;;;;;1.90;0.70;;;;;;;23.31;25.32;98664.47;5018174;28;20230;-83
2021/10/21 14:54:57;;;;;;;1.27;0.80;;;;;;;22.80;25.76;98664.25;5034008;28;20284;-86